Crow Creek, South Dakota
Current Conditions -  °F | °C
As of 8:35 AM on Wednesday 22 Oct 2014 (Local Time) from K9V9 Reporting Station
Scattered Clouds Scattered Clouds  
Wind Chill: 60°   Ceiling: Unl
Heat Index: 60°   Visibility: 10mi
Dew Point: 52°   Wind: 12mph
Humidity: 76%   Direction: 190°S
Pressure: 29.84"   Gusts: 16mph
Location:  44.0664°N, 99.3193°W
Report Text: K9V9 221335Z AUTO 19010G14KT 10SM SCT120 16/11 A2984 RMK AO2 T01560113
Loading
Personal Weather Stations






























Interactive Weather Map
Tropical Storm Tracking
New forecast layout! Learn more

10-Day Weather Forecast

Advertisements
Track Severe Weather on mobile